sensor_id;sensor_type;location;lat;lon;timestamp;P1;durP1;ratioP1;P2;durP2;ratioP2
35290;SDS011;21411;50.024;19.220;2024-03-25T00:01:30;6.30;;;5.70;;
35290;SDS011;21411;50.024;19.220;2024-03-25T00:04:20;6.40;;;5.80;;
35290;SDS011;21411;50.024;19.220;2024-03-25T00:06:49;6.30;;;4.90;;
35290;SDS011;21411;50.024;19.220;2024-03-25T00:09:16;8.00;;;5.10;;
35290;SDS011;21411;50.024;19.220;2024-03-25T00:11:43;5.60;;;4.20;;
35290;SDS011;21411;50.024;19.220;2024-03-25T00:14:10;5.30;;;3.90;;
35290;SDS011;21411;50.024;19.220;2024-03-25T00:16:36;6.20;;;4.50;;
35290;SDS011;21411;50.024;19.220;2024-03-25T00:19:03;4.20;;;3.70;;
35290;SDS011;21411;50.024;19.220;2024-03-25T00:21:29;6.30;;;4.60;;
35290;SDS011;21411;50.024;19.220;2024-03-25T00:23:55;5.60;;;4.40;;
35290;SDS011;21411;50.024;19.220;2024-03-25T00:26:25;6.10;;;4.60;;
35290;SDS011;21411;50.024;19.220;2024-03-25T00:28:52;7.40;;;5.70;;
35290;SDS011;21411;50.024;19.220;2024-03-25T00:31:18;6.20;;;5.30;;
35290;SDS011;21411;50.024;19.220;2024-03-25T00:33:45;6.90;;;4.90;;
35290;SDS011;21411;50.024;19.220;2024-03-25T00:36:12;5.80;;;4.30;;
35290;SDS011;21411;50.024;19.220;2024-03-25T00:38:38;4.40;;;3.60;;
35290;SDS011;21411;50.024;19.220;2024-03-25T00:41:05;4.00;;;2.80;;
35290;SDS011;21411;50.024;19.220;2024-03-25T00:43:31;5.60;;;3.60;;
35290;SDS011;21411;50.024;19.220;2024-03-25T00:45:57;4.50;;;3.00;;
35290;SDS011;21411;50.024;19.220;2024-03-25T00:48:24;3.80;;;3.00;;
35290;SDS011;21411;50.024;19.220;2024-03-25T00:50:50;5.80;;;3.60;;
35290;SDS011;21411;50.024;19.220;2024-03-25T00:53:17;3.80;;;2.80;;
35290;SDS011;21411;50.024;19.220;2024-03-25T00:55:44;3.60;;;2.60;;
35290;SDS011;21411;50.024;19.220;2024-03-25T00:58:11;3.50;;;2.90;;
35290;SDS011;21411;50.024;19.220;2024-03-25T01:00:37;2.90;;;2.30;;
35290;SDS011;21411;50.024;19.220;2024-03-25T01:03:04;4.60;;;2.90;;
35290;SDS011;21411;50.024;19.220;2024-03-25T01:05:30;3.10;;;2.40;;
35290;SDS011;21411;50.024;19.220;2024-03-25T01:07:57;3.90;;;2.60;;
35290;SDS011;21411;50.024;19.220;2024-03-25T01:10:23;3.50;;;2.80;;
35290;SDS011;21411;50.024;19.220;2024-03-25T01:12:49;4.40;;;2.40;;
35290;SDS011;21411;50.024;19.220;2024-03-25T01:15:16;4.20;;;2.80;;
35290;SDS011;21411;50.024;19.220;2024-03-25T01:17:42;2.90;;;2.50;;
35290;SDS011;21411;50.024;19.220;2024-03-25T01:20:09;3.60;;;2.30;;
35290;SDS011;21411;50.024;19.220;2024-03-25T01:22:35;4.00;;;2.40;;
35290;SDS011;21411;50.024;19.220;2024-03-25T01:25:02;4.10;;;2.50;;
35290;SDS011;21411;50.024;19.220;2024-03-25T01:27:28;2.90;;;2.40;;
35290;SDS011;21411;50.024;19.220;2024-03-25T01:29:55;3.70;;;2.90;;
35290;SDS011;21411;50.024;19.220;2024-03-25T01:32:21;3.10;;;2.20;;
35290;SDS011;21411;50.024;19.220;2024-03-25T01:34:47;4.40;;;2.60;;
35290;SDS011;21411;50.024;19.220;2024-03-25T01:37:14;3.90;;;2.50;;
35290;SDS011;21411;50.024;19.220;2024-03-25T01:39:40;2.70;;;2.40;;
35290;SDS011;21411;50.024;19.220;2024-03-25T01:42:06;3.70;;;2.80;;
35290;SDS011;21411;50.024;19.220;2024-03-25T01:44:33;2.50;;;2.30;;
35290;SDS011;21411;50.024;19.220;2024-03-25T01:46:59;3.00;;;2.70;;
35290;SDS011;21411;50.024;19.220;2024-03-25T01:49:26;3.10;;;2.70;;
35290;SDS011;21411;50.024;19.220;2024-03-25T01:51:52;2.90;;;2.60;;
35290;SDS011;21411;50.024;19.220;2024-03-25T01:54:19;3.60;;;2.30;;
35290;SDS011;21411;50.024;19.220;2024-03-25T01:56:45;2.40;;;2.10;;
35290;SDS011;21411;50.024;19.220;2024-03-25T01:59:13;4.80;;;2.60;;
35290;SDS011;21411;50.024;19.220;2024-03-25T02:01:43;3.90;;;3.50;;
35290;SDS011;21411;50.024;19.220;2024-03-25T02:04:11;3.50;;;3.10;;
35290;SDS011;21411;50.024;19.220;2024-03-25T02:06:38;3.30;;;3.00;;
35290;SDS011;21411;50.024;19.220;2024-03-25T02:09:07;3.60;;;3.10;;
35290;SDS011;21411;50.024;19.220;2024-03-25T02:11:36;4.20;;;3.30;;
35290;SDS011;21411;50.024;19.220;2024-03-25T02:14:03;3.60;;;2.90;;
35290;SDS011;21411;50.024;19.220;2024-03-25T02:16:29;5.60;;;3.30;;
35290;SDS011;21411;50.024;19.220;2024-03-25T02:18:55;4.00;;;3.00;;
35290;SDS011;21411;50.024;19.220;2024-03-25T02:21:22;5.00;;;2.60;;
35290;SDS011;21411;50.024;19.220;2024-03-25T02:23:48;4.50;;;3.20;;
35290;SDS011;21411;50.024;19.220;2024-03-25T02:26:18;3.50;;;3.10;;
35290;SDS011;21411;50.024;19.220;2024-03-25T02:28:45;3.50;;;3.10;;
35290;SDS011;21411;50.024;19.220;2024-03-25T02:31:11;2.90;;;2.40;;
35290;SDS011;21411;50.024;19.220;2024-03-25T02:33:38;4.00;;;3.00;;
35290;SDS011;21411;50.024;19.220;2024-03-25T02:36:04;2.90;;;2.40;;
35290;SDS011;21411;50.024;19.220;2024-03-25T02:38:31;5.70;;;3.40;;
35290;SDS011;21411;50.024;19.220;2024-03-25T02:40:58;5.50;;;3.10;;
35290;SDS011;21411;50.024;19.220;2024-03-25T02:43:25;5.10;;;3.20;;
35290;SDS011;21411;50.024;19.220;2024-03-25T02:45:51;3.60;;;3.20;;
35290;SDS011;21411;50.024;19.220;2024-03-25T02:48:18;4.60;;;3.10;;
35290;SDS011;21411;50.024;19.220;2024-03-25T02:50:44;3.70;;;3.10;;
35290;SDS011;21411;50.024;19.220;2024-03-25T02:53:11;5.20;;;3.20;;
35290;SDS011;21411;50.024;19.220;2024-03-25T02:55:37;3.80;;;3.40;;
35290;SDS011;21411;50.024;19.220;2024-03-25T02:58:03;4.00;;;3.60;;
35290;SDS011;21411;50.024;19.220;2024-03-25T03:00:30;8.00;;;4.20;;
35290;SDS011;21411;50.024;19.220;2024-03-25T03:02:56;3.80;;;3.20;;
35290;SDS011;21411;50.024;19.220;2024-03-25T03:05:23;5.40;;;4.20;;
35290;SDS011;21411;50.024;19.220;2024-03-25T03:07:49;5.10;;;4.60;;
35290;SDS011;21411;50.024;19.220;2024-03-25T03:10:15;6.70;;;3.90;;
35290;SDS011;21411;50.024;19.220;2024-03-25T03:12:42;6.70;;;4.40;;
35290;SDS011;21411;50.024;19.220;2024-03-25T03:15:08;7.00;;;3.90;;
35290;SDS011;21411;50.024;19.220;2024-03-25T03:17:35;4.60;;;3.70;;
35290;SDS011;21411;50.024;19.220;2024-03-25T03:20:01;5.90;;;3.70;;
35290;SDS011;21411;50.024;19.220;2024-03-25T03:22:28;4.60;;;4.10;;
35290;SDS011;21411;50.024;19.220;2024-03-25T03:24:54;6.00;;;4.60;;
35290;SDS011;21411;50.024;19.220;2024-03-25T03:27:20;5.30;;;4.50;;
35290;SDS011;21411;50.024;19.220;2024-03-25T03:29:47;5.50;;;4.30;;
35290;SDS011;21411;50.024;19.220;2024-03-25T03:32:13;9.40;;;5.00;;
35290;SDS011;21411;50.024;19.220;2024-03-25T03:34:39;5.30;;;4.70;;
35290;SDS011;21411;50.024;19.220;2024-03-25T03:37:05;5.10;;;4.60;;
35290;SDS011;21411;50.024;19.220;2024-03-25T03:39:32;5.60;;;4.10;;
35290;SDS011;21411;50.024;19.220;2024-03-25T03:41:58;5.30;;;4.40;;
35290;SDS011;21411;50.024;19.220;2024-03-25T03:44:24;5.20;;;4.50;;
35290;SDS011;21411;50.024;19.220;2024-03-25T03:46:51;5.30;;;4.20;;
35290;SDS011;21411;50.024;19.220;2024-03-25T03:49:17;5.50;;;4.40;;
35290;SDS011;21411;50.024;19.220;2024-03-25T03:51:44;4.00;;;3.50;;
35290;SDS011;21411;50.024;19.220;2024-03-25T03:54:10;3.00;;;2.70;;
35290;SDS011;21411;50.024;19.220;2024-03-25T03:56:36;4.70;;;3.80;;
35290;SDS011;21411;50.024;19.220;2024-03-25T03:59:03;6.00;;;4.00;;
35290;SDS011;21411;50.024;19.220;2024-03-25T04:01:30;5.50;;;4.20;;
35290;SDS011;21411;50.024;19.220;2024-03-25T04:03:56;4.80;;;3.80;;
35290;SDS011;21411;50.024;19.220;2024-03-25T04:06:22;4.20;;;3.70;;
35290;SDS011;21411;50.024;19.220;2024-03-25T04:08:49;4.90;;;4.10;;
35290;SDS011;21411;50.024;19.220;2024-03-25T04:11:15;4.50;;;4.00;;
35290;SDS011;21411;50.024;19.220;2024-03-25T04:13:41;6.90;;;4.20;;
35290;SDS011;21411;50.024;19.220;2024-03-25T04:16:08;5.60;;;5.10;;
35290;SDS011;21411;50.024;19.220;2024-03-25T04:18:35;6.30;;;5.60;;
35290;SDS011;21411;50.024;19.220;2024-03-25T04:21:01;6.20;;;5.60;;
35290;SDS011;21411;50.024;19.220;2024-03-25T04:23:28;5.40;;;4.90;;
35290;SDS011;21411;50.024;19.220;2024-03-25T04:25:54;6.30;;;3.60;;
35290;SDS011;21411;50.024;19.220;2024-03-25T04:28:21;4.80;;;4.40;;
35290;SDS011;21411;50.024;19.220;2024-03-25T04:30:54;5.10;;;4.40;;
35290;SDS011;21411;50.024;19.220;2024-03-25T04:33:20;5.10;;;4.60;;
35290;SDS011;21411;50.024;19.220;2024-03-25T04:35:47;4.80;;;4.30;;
35290;SDS011;21411;50.024;19.220;2024-03-25T04:38:15;6.90;;;6.20;;
35290;SDS011;21411;50.024;19.220;2024-03-25T04:40:43;8.00;;;6.20;;
35290;SDS011;21411;50.024;19.220;2024-03-25T04:43:10;6.60;;;5.70;;
35290;SDS011;21411;50.024;19.220;2024-03-25T04:45:36;5.50;;;5.00;;
35290;SDS011;21411;50.024;19.220;2024-03-25T04:48:03;6.50;;;5.80;;
35290;SDS011;21411;50.024;19.220;2024-03-25T04:50:30;6.70;;;5.70;;
35290;SDS011;21411;50.024;19.220;2024-03-25T04:52:57;5.50;;;5.00;;
35290;SDS011;21411;50.024;19.220;2024-03-25T04:55:23;5.40;;;4.80;;
35290;SDS011;21411;50.024;19.220;2024-03-25T04:57:49;5.40;;;4.60;;
35290;SDS011;21411;50.024;19.220;2024-03-25T05:00:15;4.50;;;4.00;;
35290;SDS011;21411;50.024;19.220;2024-03-25T05:02:42;4.80;;;4.30;;
35290;SDS011;21411;50.024;19.220;2024-03-25T05:05:09;4.80;;;4.30;;
35290;SDS011;21411;50.024;19.220;2024-03-25T05:07:35;5.20;;;4.70;;
35290;SDS011;21411;50.024;19.220;2024-03-25T05:10:02;5.80;;;5.10;;
35290;SDS011;21411;50.024;19.220;2024-03-25T05:12:29;5.30;;;4.80;;
35290;SDS011;21411;50.024;19.220;2024-03-25T05:14:56;4.60;;;4.20;;
35290;SDS011;21411;50.024;19.220;2024-03-25T05:17:23;7.10;;;5.30;;
35290;SDS011;21411;50.024;19.220;2024-03-25T05:19:49;5.50;;;4.60;;
35290;SDS011;21411;50.024;19.220;2024-03-25T05:22:17;6.00;;;4.90;;
35290;SDS011;21411;50.024;19.220;2024-03-25T05:24:43;5.30;;;4.80;;
35290;SDS011;21411;50.024;19.220;2024-03-25T05:27:09;4.50;;;3.70;;
35290;SDS011;21411;50.024;19.220;2024-03-25T05:29:36;4.00;;;3.60;;
35290;SDS011;21411;50.024;19.220;2024-03-25T05:32:02;4.50;;;4.10;;
35290;SDS011;21411;50.024;19.220;2024-03-25T05:34:29;5.20;;;4.20;;
35290;SDS011;21411;50.024;19.220;2024-03-25T05:36:56;4.60;;;4.10;;
35290;SDS011;21411;50.024;19.220;2024-03-25T05:39:22;5.20;;;4.70;;
35290;SDS011;21411;50.024;19.220;2024-03-25T05:41:49;4.60;;;4.00;;
35290;SDS011;21411;50.024;19.220;2024-03-25T05:44:15;4.50;;;4.10;;
35290;SDS011;21411;50.024;19.220;2024-03-25T05:46:41;5.30;;;4.10;;
35290;SDS011;21411;50.024;19.220;2024-03-25T05:49:08;5.20;;;4.10;;
35290;SDS011;21411;50.024;19.220;2024-03-25T05:51:34;5.40;;;4.10;;
35290;SDS011;21411;50.024;19.220;2024-03-25T05:54:01;5.30;;;4.00;;
35290;SDS011;21411;50.024;19.220;2024-03-25T05:56:28;3.80;;;3.40;;
35290;SDS011;21411;50.024;19.220;2024-03-25T05:58:57;4.30;;;3.80;;
35290;SDS011;21411;50.024;19.220;2024-03-25T06:01:24;4.40;;;3.90;;
35290;SDS011;21411;50.024;19.220;2024-03-25T06:03:50;4.30;;;3.90;;
35290;SDS011;21411;50.024;19.220;2024-03-25T06:06:17;4.10;;;3.70;;
35290;SDS011;21411;50.024;19.220;2024-03-25T06:08:44;3.80;;;3.50;;
35290;SDS011;21411;50.024;19.220;2024-03-25T06:11:10;3.70;;;3.30;;
35290;SDS011;21411;50.024;19.220;2024-03-25T06:13:37;3.90;;;3.50;;
35290;SDS011;21411;50.024;19.220;2024-03-25T06:16:03;3.90;;;3.60;;
35290;SDS011;21411;50.024;19.220;2024-03-25T06:18:30;3.60;;;3.20;;
35290;SDS011;21411;50.024;19.220;2024-03-25T06:20:56;6.30;;;4.00;;
35290;SDS011;21411;50.024;19.220;2024-03-25T06:23:23;4.10;;;3.70;;
35290;SDS011;21411;50.024;19.220;2024-03-25T06:25:52;4.60;;;4.10;;
35290;SDS011;21411;50.024;19.220;2024-03-25T06:28:19;5.00;;;4.20;;
35290;SDS011;21411;50.024;19.220;2024-03-25T06:30:46;6.00;;;4.30;;
35290;SDS011;21411;50.024;19.220;2024-03-25T06:33:33;5.30;;;4.70;;
35290;SDS011;21411;50.024;19.220;2024-03-25T06:36:19;6.90;;;5.20;;
35290;SDS011;21411;50.024;19.220;2024-03-25T06:38:46;5.10;;;4.50;;
35290;SDS011;21411;50.024;19.220;2024-03-25T06:41:12;6.20;;;4.90;;
35290;SDS011;21411;50.024;19.220;2024-03-25T06:43:39;6.00;;;4.40;;
35290;SDS011;21411;50.024;19.220;2024-03-25T06:46:06;4.50;;;4.10;;
35290;SDS011;21411;50.024;19.220;2024-03-25T06:48:33;5.30;;;4.20;;
35290;SDS011;21411;50.024;19.220;2024-03-25T06:53:29;5.60;;;4.60;;
35290;SDS011;21411;50.024;19.220;2024-03-25T06:55:57;5.60;;;4.60;;
35290;SDS011;21411;50.024;19.220;2024-03-25T06:58:25;4.90;;;4.30;;
35290;SDS011;21411;50.024;19.220;2024-03-25T07:00:53;4.50;;;4.10;;
35290;SDS011;21411;50.024;19.220;2024-03-25T07:03:20;7.10;;;4.20;;
35290;SDS011;21411;50.024;19.220;2024-03-25T07:05:48;5.80;;;4.10;;
35290;SDS011;21411;50.024;19.220;2024-03-25T07:08:15;5.00;;;3.90;;
35290;SDS011;21411;50.024;19.220;2024-03-25T07:10:42;4.90;;;3.90;;
35290;SDS011;21411;50.024;19.220;2024-03-25T07:13:08;4.50;;;3.90;;
35290;SDS011;21411;50.024;19.220;2024-03-25T07:15:35;6.00;;;4.20;;
35290;SDS011;21411;50.024;19.220;2024-03-25T07:18:01;5.10;;;4.40;;
35290;SDS011;21411;50.024;19.220;2024-03-25T07:20:28;5.20;;;3.20;;
35290;SDS011;21411;50.024;19.220;2024-03-25T07:22:55;3.60;;;3.30;;
35290;SDS011;21411;50.024;19.220;2024-03-25T07:25:25;5.30;;;3.60;;
35290;SDS011;21411;50.024;19.220;2024-03-25T07:27:52;4.40;;;3.60;;
35290;SDS011;21411;50.024;19.220;2024-03-25T07:30:18;4.30;;;3.90;;
35290;SDS011;21411;50.024;19.220;2024-03-25T07:32:45;4.40;;;3.90;;
35290;SDS011;21411;50.024;19.220;2024-03-25T07:35:12;5.70;;;4.30;;
35290;SDS011;21411;50.024;19.220;2024-03-25T07:37:38;5.90;;;4.20;;
35290;SDS011;21411;50.024;19.220;2024-03-25T07:40:05;4.50;;;4.00;;
35290;SDS011;21411;50.024;19.220;2024-03-25T07:42:32;4.70;;;3.70;;
35290;SDS011;21411;50.024;19.220;2024-03-25T07:44:59;3.80;;;3.50;;
35290;SDS011;21411;50.024;19.220;2024-03-25T07:47:26;4.40;;;3.60;;
35290;SDS011;21411;50.024;19.220;2024-03-25T07:49:52;3.60;;;3.30;;
35290;SDS011;21411;50.024;19.220;2024-03-25T07:52:19;3.30;;;2.90;;
35290;SDS011;21411;50.024;19.220;2024-03-25T07:54:45;3.60;;;3.10;;
35290;SDS011;21411;50.024;19.220;2024-03-25T07:57:11;3.70;;;2.80;;
35290;SDS011;21411;50.024;19.220;2024-03-25T07:59:37;3.20;;;2.60;;
35290;SDS011;21411;50.024;19.220;2024-03-25T08:02:04;2.90;;;2.70;;
35290;SDS011;21411;50.024;19.220;2024-03-25T08:04:31;3.00;;;2.80;;
35290;SDS011;21411;50.024;19.220;2024-03-25T08:06:57;3.10;;;2.80;;
35290;SDS011;21411;50.024;19.220;2024-03-25T08:09:24;3.10;;;2.80;;
35290;SDS011;21411;50.024;19.220;2024-03-25T08:11:50;3.60;;;3.10;;
35290;SDS011;21411;50.024;19.220;2024-03-25T08:14:16;3.30;;;3.10;;
35290;SDS011;21411;50.024;19.220;2024-03-25T08:16:43;3.80;;;2.90;;
35290;SDS011;21411;50.024;19.220;2024-03-25T08:19:09;5.10;;;3.10;;
35290;SDS011;21411;50.024;19.220;2024-03-25T08:21:36;3.40;;;3.10;;
35290;SDS011;21411;50.024;19.220;2024-03-25T08:24:02;3.00;;;2.70;;
35290;SDS011;21411;50.024;19.220;2024-03-25T08:26:29;5.30;;;3.30;;
35290;SDS011;21411;50.024;19.220;2024-03-25T08:28:55;3.60;;;3.00;;
35290;SDS011;21411;50.024;19.220;2024-03-25T08:31:21;4.90;;;3.50;;
35290;SDS011;21411;50.024;19.220;2024-03-25T08:33:47;3.80;;;3.20;;
35290;SDS011;21411;50.024;19.220;2024-03-25T08:36:14;3.10;;;2.80;;
35290;SDS011;21411;50.024;19.220;2024-03-25T08:38:40;3.10;;;2.70;;
35290;SDS011;21411;50.024;19.220;2024-03-25T08:41:06;4.20;;;2.80;;
35290;SDS011;21411;50.024;19.220;2024-03-25T08:43:33;3.20;;;2.90;;
35290;SDS011;21411;50.024;19.220;2024-03-25T08:45:59;3.00;;;2.70;;
35290;SDS011;21411;50.024;19.220;2024-03-25T08:48:26;3.30;;;2.90;;
35290;SDS011;21411;50.024;19.220;2024-03-25T08:50:52;3.10;;;2.90;;
35290;SDS011;21411;50.024;19.220;2024-03-25T08:53:18;4.40;;;4.00;;
35290;SDS011;21411;50.024;19.220;2024-03-25T08:55:45;4.90;;;4.40;;
35290;SDS011;21411;50.024;19.220;2024-03-25T08:58:15;7.00;;;6.30;;
35290;SDS011;21411;50.024;19.220;2024-03-25T09:00:42;5.50;;;5.00;;
35290;SDS011;21411;50.024;19.220;2024-03-25T09:03:08;8.40;;;4.80;;
35290;SDS011;21411;50.024;19.220;2024-03-25T09:05:36;7.40;;;5.90;;
35290;SDS011;21411;50.024;19.220;2024-03-25T09:08:06;5.20;;;4.60;;
35290;SDS011;21411;50.024;19.220;2024-03-25T09:10:32;5.70;;;4.40;;
35290;SDS011;21411;50.024;19.220;2024-03-25T09:13:17;3.70;;;3.40;;
35290;SDS011;21411;50.024;19.220;2024-03-25T09:15:44;4.40;;;4.00;;
35290;SDS011;21411;50.024;19.220;2024-03-25T09:18:13;5.30;;;3.50;;
35290;SDS011;21411;50.024;19.220;2024-03-25T09:20:40;4.50;;;3.70;;
35290;SDS011;21411;50.024;19.220;2024-03-25T09:23:06;3.40;;;3.10;;
35290;SDS011;21411;50.024;19.220;2024-03-25T09:25:33;3.30;;;2.90;;
35290;SDS011;21411;50.024;19.220;2024-03-25T09:28:00;3.50;;;3.20;;
35290;SDS011;21411;50.024;19.220;2024-03-25T09:30:27;3.70;;;3.30;;
35290;SDS011;21411;50.024;19.220;2024-03-25T09:32:53;4.00;;;3.10;;
35290;SDS011;21411;50.024;19.220;2024-03-25T09:35:20;4.00;;;3.60;;
35290;SDS011;21411;50.024;19.220;2024-03-25T09:37:46;2.80;;;2.60;;
35290;SDS011;21411;50.024;19.220;2024-03-25T09:40:13;3.40;;;3.20;;
35290;SDS011;21411;50.024;19.220;2024-03-25T09:42:49;4.10;;;3.60;;
35290;SDS011;21411;50.024;19.220;2024-03-25T09:45:18;4.20;;;3.80;;
35290;SDS011;21411;50.024;19.220;2024-03-25T09:47:45;3.10;;;2.80;;
35290;SDS011;21411;50.024;19.220;2024-03-25T09:50:14;2.90;;;2.70;;
35290;SDS011;21411;50.024;19.220;2024-03-25T09:52:48;3.50;;;2.80;;
35290;SDS011;21411;50.024;19.220;2024-03-25T09:55:16;5.10;;;2.60;;
35290;SDS011;21411;50.024;19.220;2024-03-25T09:57:42;3.70;;;3.30;;
35290;SDS011;21411;50.024;19.220;2024-03-25T10:00:10;3.50;;;3.30;;
35290;SDS011;21411;50.024;19.220;2024-03-25T10:02:38;3.00;;;2.80;;
35290;SDS011;21411;50.024;19.220;2024-03-25T10:05:06;3.30;;;3.00;;
35290;SDS011;21411;50.024;19.220;2024-03-25T10:07:33;3.90;;;3.50;;
35290;SDS011;21411;50.024;19.220;2024-03-25T10:10:06;5.00;;;3.20;;
35290;SDS011;21411;50.024;19.220;2024-03-25T10:12:35;3.80;;;3.50;;
35290;SDS011;21411;50.024;19.220;2024-03-25T10:15:02;3.60;;;2.70;;
35290;SDS011;21411;50.024;19.220;2024-03-25T10:17:32;3.10;;;2.60;;
35290;SDS011;21411;50.024;19.220;2024-03-25T10:20:00;3.20;;;2.90;;
35290;SDS011;21411;50.024;19.220;2024-03-25T10:22:26;2.40;;;1.90;;
35290;SDS011;21411;50.024;19.220;2024-03-25T10:24:52;1.50;;;1.20;;
35290;SDS011;21411;50.024;19.220;2024-03-25T10:27:22;1.70;;;1.00;;
35290;SDS011;21411;50.024;19.220;2024-03-25T10:29:53;2.60;;;1.30;;
35290;SDS011;21411;50.024;19.220;2024-03-25T10:32:23;2.70;;;1.50;;
35290;SDS011;21411;50.024;19.220;2024-03-25T10:34:50;1.90;;;1.40;;
35290;SDS011;21411;50.024;19.220;2024-03-25T10:37:17;2.70;;;1.90;;
35290;SDS011;21411;50.024;19.220;2024-03-25T10:39:50;5.60;;;4.00;;
35290;SDS011;21411;50.024;19.220;2024-03-25T10:42:18;4.50;;;3.60;;
35290;SDS011;21411;50.024;19.220;2024-03-25T10:44:45;4.70;;;4.10;;
35290;SDS011;21411;50.024;19.220;2024-03-25T10:47:16;4.00;;;3.50;;
35290;SDS011;21411;50.024;19.220;2024-03-25T10:49:48;3.90;;;2.50;;
35290;SDS011;21411;50.024;19.220;2024-03-25T10:52:16;2.90;;;2.50;;
35290;SDS011;21411;50.024;19.220;2024-03-25T10:54:45;2.90;;;2.30;;
35290;SDS011;21411;50.024;19.220;2024-03-25T10:57:13;5.10;;;3.10;;
35290;SDS011;21411;50.024;19.220;2024-03-25T10:59:43;4.30;;;2.60;;
35290;SDS011;21411;50.024;19.220;2024-03-25T11:02:10;3.30;;;2.30;;
35290;SDS011;21411;50.024;19.220;2024-03-25T11:04:37;2.50;;;2.30;;
35290;SDS011;21411;50.024;19.220;2024-03-25T11:07:08;3.90;;;2.60;;
35290;SDS011;21411;50.024;19.220;2024-03-25T11:09:35;2.60;;;2.30;;
35290;SDS011;21411;50.024;19.220;2024-03-25T11:12:01;2.70;;;2.50;;
35290;SDS011;21411;50.024;19.220;2024-03-25T11:14:28;1.90;;;1.80;;
35290;SDS011;21411;50.024;19.220;2024-03-25T11:16:54;4.90;;;3.00;;
35290;SDS011;21411;50.024;19.220;2024-03-25T11:19:25;6.00;;;5.40;;
35290;SDS011;21411;50.024;19.220;2024-03-25T11:21:53;5.10;;;4.60;;
35290;SDS011;21411;50.024;19.220;2024-03-25T11:24:27;4.90;;;4.30;;
35290;SDS011;21411;50.024;19.220;2024-03-25T11:26:55;6.50;;;5.10;;
35290;SDS011;21411;50.024;19.220;2024-03-25T11:29:22;7.40;;;5.00;;
35290;SDS011;21411;50.024;19.220;2024-03-25T11:31:49;5.90;;;5.20;;
35290;SDS011;21411;50.024;19.220;2024-03-25T11:34:16;6.90;;;6.10;;
35290;SDS011;21411;50.024;19.220;2024-03-25T11:36:42;4.50;;;3.90;;
35290;SDS011;21411;50.024;19.220;2024-03-25T11:39:08;4.00;;;3.40;;
35290;SDS011;21411;50.024;19.220;2024-03-25T11:41:42;4.30;;;3.00;;
35290;SDS011;21411;50.024;19.220;2024-03-25T11:44:09;3.70;;;2.90;;
35290;SDS011;21411;50.024;19.220;2024-03-25T11:46:37;4.60;;;2.90;;
35290;SDS011;21411;50.024;19.220;2024-03-25T11:49:07;4.90;;;3.20;;
35290;SDS011;21411;50.024;19.220;2024-03-25T11:51:35;3.10;;;2.80;;
35290;SDS011;21411;50.024;19.220;2024-03-25T11:54:05;4.80;;;3.40;;
35290;SDS011;21411;50.024;19.220;2024-03-25T11:56:31;3.60;;;3.00;;
35290;SDS011;21411;50.024;19.220;2024-03-25T11:59:00;2.90;;;2.60;;
35290;SDS011;21411;50.024;19.220;2024-03-25T12:01:27;3.40;;;2.80;;
35290;SDS011;21411;50.024;19.220;2024-03-25T12:03:53;3.70;;;3.40;;
35290;SDS011;21411;50.024;19.220;2024-03-25T12:06:20;4.70;;;3.20;;
35290;SDS011;21411;50.024;19.220;2024-03-25T12:08:47;8.00;;;4.80;;
35290;SDS011;21411;50.024;19.220;2024-03-25T12:11:32;4.20;;;3.70;;
35290;SDS011;21411;50.024;19.220;2024-03-25T12:13:59;4.70;;;3.90;;
35290;SDS011;21411;50.024;19.220;2024-03-25T12:16:26;5.40;;;4.50;;
35290;SDS011;21411;50.024;19.220;2024-03-25T12:18:52;6.20;;;5.60;;
35290;SDS011;21411;50.024;19.220;2024-03-25T12:21:19;8.00;;;5.80;;
35290;SDS011;21411;50.024;19.220;2024-03-25T12:23:47;7.00;;;5.60;;
35290;SDS011;21411;50.024;19.220;2024-03-25T12:26:14;4.80;;;4.30;;
35290;SDS011;21411;50.024;19.220;2024-03-25T12:28:40;6.90;;;4.90;;
35290;SDS011;21411;50.024;19.220;2024-03-25T12:31:07;6.50;;;4.90;;
35290;SDS011;21411;50.024;19.220;2024-03-25T12:33:41;5.80;;;4.20;;
35290;SDS011;21411;50.024;19.220;2024-03-25T12:36:08;5.30;;;4.20;;
35290;SDS011;21411;50.024;19.220;2024-03-25T12:38:34;6.20;;;4.70;;
35290;SDS011;21411;50.024;19.220;2024-03-25T12:41:04;6.00;;;5.50;;
35290;SDS011;21411;50.024;19.220;2024-03-25T12:43:32;5.50;;;4.50;;
35290;SDS011;21411;50.024;19.220;2024-03-25T12:45:59;5.90;;;4.80;;
35290;SDS011;21411;50.024;19.220;2024-03-25T12:48:26;5.20;;;4.60;;
35290;SDS011;21411;50.024;19.220;2024-03-25T12:50:52;5.00;;;4.50;;
35290;SDS011;21411;50.024;19.220;2024-03-25T12:53:22;6.20;;;5.30;;
35290;SDS011;21411;50.024;19.220;2024-03-25T12:55:48;5.30;;;4.60;;
35290;SDS011;21411;50.024;19.220;2024-03-25T12:58:15;7.20;;;6.30;;
35290;SDS011;21411;50.024;19.220;2024-03-25T13:00:41;7.60;;;5.90;;
35290;SDS011;21411;50.024;19.220;2024-03-25T13:03:08;6.70;;;6.00;;
35290;SDS011;21411;50.024;19.220;2024-03-25T13:05:35;5.70;;;4.90;;
35290;SDS011;21411;50.024;19.220;2024-03-25T13:08:02;5.00;;;4.30;;
35290;SDS011;21411;50.024;19.220;2024-03-25T13:10:30;6.30;;;5.00;;
35290;SDS011;21411;50.024;19.220;2024-03-25T13:12:56;8.90;;;6.50;;
35290;SDS011;21411;50.024;19.220;2024-03-25T13:15:23;7.40;;;6.70;;
35290;SDS011;21411;50.024;19.220;2024-03-25T13:17:50;4.50;;;4.00;;
35290;SDS011;21411;50.024;19.220;2024-03-25T13:20:17;5.00;;;3.80;;
35290;SDS011;21411;50.024;19.220;2024-03-25T13:22:44;6.80;;;3.70;;
35290;SDS011;21411;50.024;19.220;2024-03-25T13:25:11;9.60;;;8.80;;
35290;SDS011;21411;50.024;19.220;2024-03-25T13:27:38;10.40;;;9.10;;
35290;SDS011;21411;50.024;19.220;2024-03-25T13:30:05;7.40;;;6.70;;
35290;SDS011;21411;50.024;19.220;2024-03-25T13:32:32;10.50;;;9.50;;
35290;SDS011;21411;50.024;19.220;2024-03-25T13:34:58;6.70;;;5.80;;
35290;SDS011;21411;50.024;19.220;2024-03-25T13:37:25;6.00;;;4.60;;
35290;SDS011;21411;50.024;19.220;2024-03-25T13:39:51;5.60;;;4.50;;
35290;SDS011;21411;50.024;19.220;2024-03-25T13:42:19;4.70;;;4.20;;
35290;SDS011;21411;50.024;19.220;2024-03-25T13:44:45;5.90;;;4.90;;
35290;SDS011;21411;50.024;19.220;2024-03-25T13:47:11;5.80;;;4.60;;
35290;SDS011;21411;50.024;19.220;2024-03-25T13:49:38;5.20;;;4.70;;
35290;SDS011;21411;50.024;19.220;2024-03-25T13:52:04;7.10;;;4.40;;
35290;SDS011;21411;50.024;19.220;2024-03-25T13:54:30;4.20;;;3.40;;
35290;SDS011;21411;50.024;19.220;2024-03-25T13:56:57;5.30;;;4.40;;
35290;SDS011;21411;50.024;19.220;2024-03-25T13:59:23;5.70;;;3.60;;
35290;SDS011;21411;50.024;19.220;2024-03-25T14:01:50;4.30;;;3.80;;
35290;SDS011;21411;50.024;19.220;2024-03-25T14:04:17;3.80;;;3.10;;
35290;SDS011;21411;50.024;19.220;2024-03-25T14:06:44;4.30;;;3.40;;
35290;SDS011;21411;50.024;19.220;2024-03-25T14:09:24;4.60;;;3.50;;
35290;SDS011;21411;50.024;19.220;2024-03-25T14:11:51;3.70;;;3.00;;
35290;SDS011;21411;50.024;19.220;2024-03-25T14:14:18;3.30;;;3.00;;
35290;SDS011;21411;50.024;19.220;2024-03-25T14:16:44;4.80;;;3.70;;
35290;SDS011;21411;50.024;19.220;2024-03-25T14:19:11;4.80;;;3.50;;
35290;SDS011;21411;50.024;19.220;2024-03-25T14:21:37;5.20;;;3.90;;
35290;SDS011;21411;50.024;19.220;2024-03-25T14:24:07;5.30;;;4.10;;
35290;SDS011;21411;50.024;19.220;2024-03-25T14:26:33;4.90;;;4.50;;
35290;SDS011;21411;50.024;19.220;2024-03-25T14:29:00;4.90;;;4.20;;
35290;SDS011;21411;50.024;19.220;2024-03-25T14:31:27;4.40;;;4.00;;
35290;SDS011;21411;50.024;19.220;2024-03-25T14:33:55;5.30;;;4.30;;
35290;SDS011;21411;50.024;19.220;2024-03-25T14:36:22;5.80;;;4.50;;